createdAt,value
2018-01-17T00:00:52.843Z,3.95
2018-01-17T00:01:52.819Z,4.12
2018-01-17T00:02:52.755Z,4.10
2018-01-17T00:03:52.715Z,4.10
2018-01-17T00:04:52.686Z,4.05
2018-01-17T00:05:52.653Z,4.06
2018-01-17T00:06:52.594Z,3.95
2018-01-17T00:07:52.555Z,4.05
2018-01-17T00:08:52.513Z,4.12
2018-01-17T00:09:52.497Z,3.96
2018-01-17T00:10:52.433Z,3.99
2018-01-17T00:11:52.395Z,4.02
2018-01-17T00:12:52.352Z,4.12
2018-01-17T00:13:52.313Z,4.08
2018-01-17T00:14:52.272Z,3.98
2018-01-17T00:15:52.234Z,4.05
2018-01-17T00:16:52.196Z,4.04
2018-01-17T00:17:52.153Z,4.01
2018-01-17T00:18:52.111Z,3.94
2018-01-17T00:19:52.072Z,4.02
2018-01-17T00:20:52.032Z,3.92
2018-01-17T00:21:51.995Z,3.81
2018-01-17T00:22:51.951Z,3.84
2018-01-17T00:23:51.914Z,3.81
2018-01-17T00:24:51.867Z,3.78
2018-01-17T00:25:51.836Z,3.87
2018-01-17T00:26:51.786Z,3.74
2018-01-17T00:27:51.746Z,3.76
2018-01-17T00:28:51.735Z,3.66
2018-01-17T00:29:51.669Z,3.65
2018-01-17T00:30:51.627Z,3.63
2018-01-17T00:31:51.587Z,3.66
2018-01-17T00:32:51.548Z,3.53
2018-01-17T00:33:51.507Z,3.56
2018-01-17T00:34:51.464Z,3.53
2018-01-17T00:35:51.426Z,3.56
2018-01-17T00:36:51.386Z,3.58
2018-01-17T00:37:51.348Z,3.56
2018-01-17T00:38:51.304Z,3.56
2018-01-17T00:39:51.263Z,3.53
2018-01-17T00:40:51.222Z,3.55
2018-01-17T00:41:51.180Z,3.55
2018-01-17T00:42:51.145Z,3.55
2018-01-17T00:43:51.101Z,3.50
2018-01-17T00:44:51.059Z,3.50
2018-01-17T00:45:51.018Z,3.44
2018-01-17T00:46:50.979Z,3.41
2018-01-17T00:47:50.939Z,3.45
2018-01-17T00:48:50.895Z,3.56
2018-01-17T00:49:50.856Z,3.51
2018-01-17T00:50:50.813Z,3.53
2018-01-17T00:51:50.773Z,3.53
2018-01-17T00:52:50.735Z,3.55
2018-01-17T00:53:50.691Z,3.53
2018-01-17T00:54:50.655Z,3.58
2018-01-17T00:55:50.640Z,3.63
2018-01-17T00:56:50.573Z,3.70
2018-01-17T00:57:50.528Z,3.68
2018-01-17T00:58:50.490Z,3.62
2018-01-17T00:59:50.450Z,3.65
2018-01-17T01:00:50.410Z,3.78
2018-01-17T01:01:50.367Z,3.73
2018-01-17T01:02:50.325Z,3.74
2018-01-17T01:03:50.285Z,3.84
2018-01-17T01:04:50.245Z,3.86
2018-01-17T01:05:50.240Z,3.73
2018-01-17T01:06:50.195Z,3.77
2018-01-17T01:07:50.124Z,3.80
2018-01-17T01:08:50.082Z,3.76
2018-01-17T01:09:50.042Z,3.77
2018-01-17T01:10:50.001Z,3.76
2018-01-17T01:11:49.960Z,3.62
2018-01-17T01:12:49.922Z,3.65
2018-01-17T01:13:49.878Z,3.68
2018-01-17T01:14:49.836Z,3.68
2018-01-17T01:15:49.797Z,3.53
2018-01-17T01:16:49.757Z,3.62
2018-01-17T01:17:49.718Z,3.56
2018-01-17T01:18:49.675Z,3.50
2018-01-17T01:19:49.634Z,3.60
2018-01-17T01:20:49.621Z,3.65
2018-01-17T01:21:49.553Z,3.69
2018-01-17T01:22:49.509Z,3.74
2018-01-17T01:23:50.293Z,3.73
2018-01-17T01:24:49.429Z,3.73
2018-01-17T01:25:49.388Z,3.60
2018-01-17T01:26:49.350Z,3.63
2018-01-17T01:27:49.307Z,3.66
2018-01-17T01:28:49.266Z,3.66
2018-01-17T01:29:49.222Z,3.53
2018-01-17T01:30:49.184Z,3.68
2018-01-17T01:31:49.144Z,3.69
2018-01-17T01:32:49.103Z,3.70
2018-01-17T01:33:49.065Z,3.65
2018-01-17T01:34:49.022Z,3.70
2018-01-17T01:35:49.003Z,3.68
2018-01-17T01:36:48.938Z,3.73
2018-01-17T01:37:48.911Z,3.81
2018-01-17T01:38:48.856Z,3.81
2018-01-17T01:39:48.815Z,3.80
2018-01-17T01:40:48.795Z,3.92
2018-01-17T01:41:48.733Z,4.12
2018-01-17T01:42:48.697Z,4.02
2018-01-17T01:43:48.651Z,4.13
2018-01-17T01:44:48.610Z,4.12
2018-01-17T01:45:48.570Z,4.12
2018-01-17T01:46:48.531Z,4.16
2018-01-17T01:47:48.488Z,4.17
2018-01-17T01:48:48.449Z,4.17
2018-01-17T01:49:48.407Z,4.23
2018-01-17T01:50:48.367Z,4.22
2018-01-17T01:51:48.327Z,4.16
2018-01-17T01:52:48.284Z,4.31
2018-01-17T01:53:48.242Z,4.23
2018-01-17T01:54:48.230Z,4.17
2018-01-17T01:55:48.162Z,4.14
2018-01-17T01:56:48.120Z,4.12
2018-01-17T01:57:48.079Z,4.13
2018-01-17T01:58:48.039Z,4.13
2018-01-17T01:59:48.027Z,4.17
2018-01-17T02:00:47.962Z,4.26
2018-01-17T02:01:47.921Z,4.17
2018-01-17T02:02:47.878Z,4.26
2018-01-17T02:03:47.836Z,4.28
2018-01-17T02:04:47.794Z,4.26
2018-01-17T02:05:47.754Z,4.34
2018-01-17T02:06:47.712Z,4.28
2018-01-17T02:07:47.673Z,4.31
2018-01-17T02:08:47.632Z,4.32
2018-01-17T02:09:47.591Z,4.23
2018-01-17T02:10:47.550Z,4.24
2018-01-17T02:11:47.510Z,4.24
2018-01-17T02:12:47.475Z,4.19
2018-01-17T02:13:47.428Z,4.17
2018-01-17T02:14:47.388Z,4.19
2018-01-17T02:15:47.348Z,4.16
2018-01-17T02:16:47.306Z,4.17
2018-01-17T02:17:47.264Z,4.20
2018-01-17T02:18:47.226Z,4.17
2018-01-17T02:19:47.190Z,4.17
2018-01-17T02:20:47.144Z,4.14
2018-01-17T02:21:47.105Z,4.01
2018-01-17T02:22:47.065Z,4.02
2018-01-17T02:23:47.022Z,4.01
2018-01-17T02:24:46.987Z,3.99
2018-01-17T02:25:46.944Z,4.08
2018-01-17T02:26:46.899Z,4.08
2018-01-17T02:27:46.860Z,4.04
2018-01-17T02:28:46.820Z,4.04
2018-01-17T02:29:46.779Z,4.02
2018-01-17T02:30:46.738Z,4.12
2018-01-17T02:31:46.697Z,4.08
2018-01-17T02:32:46.657Z,4.06
2018-01-17T02:33:46.616Z,4.12
2018-01-17T02:34:46.582Z,4.14
2018-01-17T02:35:46.534Z,4.12
2018-01-17T02:36:46.496Z,4.17
2018-01-17T02:37:46.453Z,4.14
2018-01-17T02:38:46.413Z,4.16
2018-01-17T02:39:46.373Z,4.16
2018-01-17T02:40:46.331Z,3.99
2018-01-17T02:41:46.292Z,3.94
2018-01-17T02:42:46.251Z,3.80
2018-01-17T02:43:46.210Z,3.53
2018-01-17T02:44:46.172Z,3.34
2018-01-17T02:45:46.127Z,3.22
2018-01-17T02:46:46.087Z,3.08
2018-01-17T02:47:46.049Z,3.04
2018-01-17T02:48:46.006Z,3.11
2018-01-17T02:49:45.973Z,3.04
2018-01-17T02:50:45.924Z,3.05
2018-01-17T02:51:45.883Z,3.05
2018-01-17T02:52:45.844Z,3.05
2018-01-17T02:53:45.798Z,3.08
2018-01-17T02:54:45.760Z,3.11
2018-01-17T02:55:45.720Z,3.08
2018-01-17T02:56:45.678Z,3.05
2018-01-17T02:57:45.640Z,3.22
2018-01-17T02:58:45.622Z,3.28
2018-01-17T02:59:45.555Z,3.31
2018-01-17T03:00:45.556Z,3.44
2018-01-17T03:01:45.474Z,3.47
2018-01-17T03:02:45.431Z,3.51
2018-01-17T03:03:45.398Z,3.68
2018-01-17T03:04:45.350Z,3.76
2018-01-17T03:05:45.309Z,3.83
2018-01-17T03:06:45.265Z,3.76
2018-01-17T03:07:45.224Z,3.86
2018-01-17T03:08:45.185Z,3.77
2018-01-17T03:09:45.148Z,3.73
2018-01-17T03:10:45.106Z,3.80
2018-01-17T03:11:45.063Z,3.87
2018-01-17T03:12:45.021Z,3.81
2018-01-17T03:13:44.980Z,3.84
2018-01-17T03:14:44.938Z,3.99
2018-01-17T03:15:44.897Z,3.99
2018-01-17T03:16:44.858Z,3.94
2018-01-17T03:17:44.816Z,4.10
2018-01-17T03:18:44.777Z,3.95
2018-01-17T03:19:44.734Z,3.91
2018-01-17T03:20:44.697Z,3.96
2018-01-17T03:21:44.654Z,3.99
2018-01-17T03:22:44.613Z,3.95
2018-01-17T03:23:44.572Z,3.95
2018-01-17T03:24:44.531Z,3.92
2018-01-17T03:25:44.491Z,4.01
2018-01-17T03:26:44.450Z,3.94
2018-01-17T03:27:44.425Z,3.96
2018-01-17T03:28:44.369Z,3.95
2018-01-17T03:29:44.325Z,3.99
2018-01-17T03:30:44.286Z,3.99
2018-01-17T03:31:44.248Z,4.04
2018-01-17T03:32:44.206Z,3.98
2018-01-17T03:33:44.162Z,3.96
2018-01-17T03:34:44.123Z,3.94
2018-01-17T03:35:44.084Z,3.95
2018-01-17T03:36:44.042Z,4.01
2018-01-17T03:37:44.002Z,4.08
2018-01-17T03:38:43.960Z,4.01
2018-01-17T03:39:43.920Z,4.02
2018-01-17T03:40:43.878Z,3.98
2018-01-17T03:41:43.838Z,4.04
2018-01-17T03:42:43.800Z,4.08
2018-01-17T03:43:43.756Z,4.02
2018-01-17T03:44:43.718Z,4.01
2018-01-17T03:45:43.710Z,4.02
2018-01-17T03:46:43.633Z,4.01
2018-01-17T03:47:43.595Z,4.01
2018-01-17T03:48:43.556Z,3.98
2018-01-17T03:49:43.511Z,3.98
2018-01-17T03:50:43.473Z,3.98
2018-01-17T03:51:43.457Z,3.92
2018-01-17T03:52:43.393Z,3.94
2018-01-17T03:53:43.349Z,3.94
2018-01-17T03:54:43.309Z,3.88
2018-01-17T03:55:43.360Z,3.92
2018-01-17T03:56:43.227Z,3.83
2018-01-17T03:57:43.184Z,3.81
2018-01-17T03:58:43.150Z,3.86
2018-01-17T03:59:43.104Z,3.88
2018-01-17T04:00:43.062Z,3.91
2018-01-17T04:01:43.022Z,3.94
2018-01-17T04:02:42.983Z,3.98
2018-01-17T04:03:42.941Z,3.94
2018-01-17T04:04:42.901Z,3.92
2018-01-17T04:05:42.864Z,3.81
2018-01-17T04:06:42.818Z,3.87
2018-01-17T04:07:42.779Z,3.77
2018-01-17T04:08:42.737Z,3.78
2018-01-17T04:09:42.696Z,3.83
2018-01-17T04:10:42.657Z,3.84
2018-01-17T04:11:42.615Z,3.87
2018-01-17T04:12:42.575Z,3.81
2018-01-17T04:13:42.531Z,3.78
2018-01-17T04:14:42.491Z,3.76
2018-01-17T04:15:42.452Z,3.70
2018-01-17T04:16:42.412Z,3.87
2018-01-17T04:17:42.372Z,3.78
2018-01-17T04:18:42.328Z,3.70
2018-01-17T04:19:42.291Z,3.86
2018-01-17T04:20:42.248Z,3.83
2018-01-17T04:21:42.216Z,3.80
2018-01-17T04:22:42.188Z,3.78
2018-01-17T04:23:42.126Z,3.83
2018-01-17T04:24:42.084Z,3.88
2018-01-17T04:25:42.075Z,3.92
2018-01-17T04:26:42.009Z,3.87
2018-01-17T04:27:41.967Z,3.77
2018-01-17T04:28:41.921Z,3.92
2018-01-17T04:29:41.881Z,3.95
2018-01-17T04:30:41.858Z,3.95
2018-01-17T04:31:41.796Z,3.92
2018-01-17T04:32:41.758Z,3.81
2018-01-17T04:33:41.719Z,3.88
2018-01-17T04:34:41.676Z,3.95
2018-01-17T04:35:41.657Z,3.84
2018-01-17T04:36:41.592Z,3.87
2018-01-17T04:37:41.551Z,3.86
2018-01-17T04:38:41.513Z,3.73
2018-01-17T04:39:41.472Z,3.28
2018-01-17T04:40:41.431Z,2.85
2018-01-17T04:41:41.389Z,2.42
2018-01-17T04:42:41.349Z,2.02
2018-01-17T04:43:41.308Z,1.70
2018-01-17T04:44:41.269Z,1.60
2018-01-17T04:45:41.227Z,1.42
2018-01-17T04:46:41.184Z,1.38
2018-01-17T04:47:41.144Z,1.31
2018-01-17T04:48:41.105Z,1.30
2018-01-17T04:49:41.059Z,1.14
2018-01-17T04:50:41.046Z,1.10
2018-01-17T04:51:40.977Z,1.02
2018-01-17T04:52:40.935Z,0.98
2018-01-17T04:53:40.893Z,0.96
2018-01-17T04:54:40.877Z,0.94
2018-01-17T04:55:40.812Z,0.92
2018-01-17T04:56:40.770Z,0.94
2018-01-17T04:57:40.728Z,0.98
2018-01-17T04:58:40.684Z,1.02
2018-01-17T04:59:40.645Z,0.99
2018-01-17T05:00:40.604Z,0.92
2018-01-17T05:01:40.596Z,0.99
2018-01-17T05:02:40.518Z,0.94
2018-01-17T05:03:40.475Z,0.99
2018-01-17T05:04:40.435Z,0.95
2018-01-17T05:05:40.400Z,0.88
2018-01-17T05:06:40.352Z,1.02
2018-01-17T05:07:40.310Z,1.06
2018-01-17T05:08:40.295Z,1.04
2018-01-17T05:09:40.222Z,1.08
2018-01-17T05:10:40.180Z,1.14
2018-01-17T05:11:40.172Z,1.14
2018-01-17T05:12:40.098Z,1.28
2018-01-17T05:13:40.068Z,1.32
2018-01-17T05:14:40.779Z,1.31
2018-01-17T05:15:39.970Z,1.40
2018-01-17T05:16:39.942Z,1.32
2018-01-17T05:17:40.778Z,1.38
2018-01-17T05:18:39.846Z,1.38
2018-01-17T05:19:39.810Z,1.28
2018-01-17T05:20:39.765Z,1.35
2018-01-17T05:21:39.747Z,1.52
2018-01-17T05:22:39.703Z,1.55
2018-01-17T05:23:39.637Z,1.50
2018-01-17T05:24:39.614Z,1.58
2018-01-17T05:25:39.560Z,1.48
2018-01-17T05:26:39.508Z,1.55
2018-01-17T05:27:39.502Z,1.40
2018-01-17T05:28:39.431Z,1.34
2018-01-17T05:29:39.389Z,1.16
2018-01-17T05:30:39.341Z,1.13
2018-01-17T05:31:39.309Z,1.13
2018-01-17T05:32:39.256Z,1.10
2018-01-17T05:33:39.214Z,1.01
2018-01-17T05:34:39.172Z,0.92
2018-01-17T05:35:39.133Z,1.04
2018-01-17T05:36:39.106Z,0.88
2018-01-17T05:37:39.049Z,0.87
2018-01-17T05:38:39.006Z,0.95
2018-01-17T05:39:38.964Z,0.88
2018-01-17T05:40:38.960Z,0.94
2018-01-17T05:41:38.879Z,0.87
2018-01-17T05:42:38.846Z,0.94
2018-01-17T05:43:38.797Z,0.91
2018-01-17T05:44:38.752Z,0.92
2018-01-17T05:45:38.713Z,0.94
2018-01-17T05:46:38.670Z,0.88
2018-01-17T05:47:38.630Z,0.94
2018-01-17T05:48:38.587Z,0.91
2018-01-17T05:49:38.599Z,0.94
2018-01-17T05:50:38.500Z,0.88
2018-01-17T05:51:38.460Z,0.87
2018-01-17T05:52:38.420Z,0.92
2018-01-17T05:53:38.372Z,0.91
2018-01-17T05:54:38.336Z,0.95
2018-01-17T05:55:38.289Z,0.91
2018-01-17T05:56:38.254Z,0.94
2018-01-17T05:57:38.206Z,0.94
2018-01-17T05:58:38.173Z,1.06
2018-01-17T05:59:38.123Z,1.01
2018-01-17T06:00:38.100Z,1.02
2018-01-17T06:01:38.037Z,1.05
2018-01-17T06:02:38.064Z,0.98
2018-01-17T06:03:37.955Z,1.05
2018-01-17T06:04:37.915Z,1.06
2018-01-17T06:05:37.870Z,1.17
2018-01-17T06:06:37.830Z,1.14
2018-01-17T06:07:37.786Z,1.17
2018-01-17T06:08:37.744Z,1.20
2018-01-17T06:09:37.720Z,1.14
2018-01-17T06:10:37.686Z,1.17
2018-01-17T06:11:37.649Z,1.19
2018-01-17T06:12:37.590Z,1.19
2018-01-17T06:13:37.534Z,1.14
2018-01-17T06:14:37.537Z,1.13
2018-01-17T06:15:37.451Z,1.06
2018-01-17T06:16:37.410Z,1.10
2018-01-17T06:17:37.367Z,1.05
2018-01-17T06:18:37.348Z,1.04
2018-01-17T06:19:37.304Z,1.06
2018-01-17T06:20:37.263Z,1.14
2018-01-17T06:21:37.198Z,1.23
2018-01-17T06:22:37.199Z,1.23
2018-01-17T06:23:37.123Z,1.23
2018-01-17T06:24:37.082Z,1.31
2018-01-17T06:25:37.030Z,1.40
2018-01-17T06:26:36.994Z,1.38
2018-01-17T06:27:36.958Z,1.32
2018-01-17T06:28:36.910Z,1.37
2018-01-17T06:29:36.862Z,1.40
2018-01-17T06:30:36.858Z,1.35
2018-01-17T06:31:36.781Z,1.40
2018-01-17T06:32:36.738Z,1.37
2018-01-17T06:33:36.697Z,1.42
2018-01-17T06:34:36.654Z,1.37
2018-01-17T06:35:36.612Z,1.38
2018-01-17T06:36:36.571Z,1.34
2018-01-17T06:37:36.528Z,1.31
2018-01-17T06:38:36.487Z,1.37
2018-01-17T06:39:36.444Z,1.35
2018-01-17T06:40:36.409Z,1.40
2018-01-17T06:41:36.359Z,1.37
2018-01-17T06:42:36.318Z,1.41
2018-01-17T06:43:36.287Z,1.35
2018-01-17T06:44:36.234Z,1.37
2018-01-17T06:45:36.194Z,1.50
2018-01-17T06:46:36.151Z,1.52
2018-01-17T06:47:36.108Z,1.49
2018-01-17T06:48:36.069Z,1.49
2018-01-17T06:49:36.023Z,1.58
2018-01-17T06:50:35.982Z,1.53
2018-01-17T06:51:35.945Z,1.63
2018-01-17T06:52:35.901Z,1.63
2018-01-17T06:53:35.856Z,1.67
2018-01-17T06:54:35.814Z,1.70
2018-01-17T06:55:35.774Z,1.70
2018-01-17T06:56:35.732Z,1.62
2018-01-17T06:57:35.692Z,1.70
2018-01-17T06:58:35.648Z,1.70
2018-01-17T06:59:35.608Z,1.66
2018-01-17T07:00:35.567Z,1.68
2018-01-17T07:01:35.525Z,1.67
2018-01-17T07:02:35.481Z,1.63
2018-01-17T07:03:35.440Z,1.55
2018-01-17T07:04:35.399Z,1.63
2018-01-17T07:05:35.355Z,1.55
2018-01-17T07:06:35.312Z,1.59
2018-01-17T07:07:35.272Z,1.55
2018-01-17T07:08:35.232Z,1.52
2018-01-17T07:09:35.190Z,1.34
2018-01-17T07:10:35.146Z,1.41
2018-01-17T07:11:35.103Z,1.41
2018-01-17T07:12:35.068Z,1.32
2018-01-17T07:13:35.023Z,1.24
2018-01-17T07:14:34.980Z,1.26
2018-01-17T07:15:34.937Z,1.19
2018-01-17T07:16:34.898Z,1.19
2018-01-17T07:17:34.851Z,1.12
2018-01-17T07:18:34.810Z,1.05
2018-01-17T07:19:34.770Z,1.02
2018-01-17T07:20:34.723Z,0.96
2018-01-17T07:21:34.685Z,0.94
2018-01-17T07:22:34.638Z,0.99
2018-01-17T07:23:34.600Z,0.88
2018-01-17T07:24:34.558Z,0.98
2018-01-17T07:25:34.517Z,0.98
2018-01-17T07:26:34.475Z,0.95
2018-01-17T07:27:34.431Z,0.91
2018-01-17T07:28:34.396Z,0.87
2018-01-17T07:29:34.347Z,0.92
2018-01-17T07:30:34.307Z,0.96
2018-01-17T07:31:34.294Z,0.95
2018-01-17T07:32:34.223Z,0.99
2018-01-17T07:33:34.179Z,1.04
2018-01-17T07:34:34.136Z,1.05
2018-01-17T07:35:34.094Z,1.02
2018-01-17T07:36:34.052Z,1.14
2018-01-17T07:37:34.012Z,1.17
2018-01-17T07:38:33.967Z,1.16
2018-01-17T07:39:33.927Z,1.19
2018-01-17T07:40:33.887Z,1.28
2018-01-17T07:41:33.840Z,1.24
2018-01-17T07:42:33.804Z,1.22
2018-01-17T07:43:33.758Z,1.24
2018-01-17T07:44:33.726Z,1.23
2018-01-17T07:45:33.674Z,1.32
2018-01-17T07:46:33.632Z,1.31
2018-01-17T07:47:33.588Z,1.37
2018-01-17T07:48:33.548Z,1.40
2018-01-17T07:49:33.502Z,1.35
2018-01-17T07:50:33.465Z,1.44
2018-01-17T07:51:33.422Z,1.40
2018-01-17T07:52:33.381Z,1.35
2018-01-17T07:53:33.336Z,1.35
2018-01-17T07:54:33.297Z,1.35
2018-01-17T07:55:33.253Z,1.31
2018-01-17T07:56:33.211Z,1.38
2018-01-17T07:57:33.168Z,1.34
2018-01-17T07:58:33.129Z,1.35
2018-01-17T07:59:33.084Z,1.34
2018-01-17T08:00:33.044Z,1.32
2018-01-17T08:01:33.056Z,1.44
2018-01-17T08:02:32.959Z,1.44
2018-01-17T08:03:32.917Z,1.42
2018-01-17T08:04:32.877Z,1.45
2018-01-17T08:05:32.833Z,1.53
2018-01-17T08:06:32.789Z,1.44
2018-01-17T08:07:32.751Z,1.52
2018-01-17T08:08:32.711Z,1.50
2018-01-17T08:09:32.702Z,1.53
2018-01-17T08:10:32.625Z,1.50
2018-01-17T08:11:32.584Z,1.53
2018-01-17T08:12:32.570Z,1.60
2018-01-17T08:13:32.499Z,1.60
2018-01-17T08:14:32.455Z,1.59
2018-01-17T08:15:32.414Z,1.50
2018-01-17T08:16:32.371Z,1.50
2018-01-17T08:17:32.332Z,1.67
2018-01-17T08:18:32.290Z,1.60
2018-01-17T08:19:32.249Z,1.55
2018-01-17T08:20:32.225Z,1.66
2018-01-17T08:21:32.163Z,1.63
2018-01-17T08:22:32.124Z,1.73
2018-01-17T08:23:32.082Z,1.78
2018-01-17T08:24:32.041Z,1.81
2018-01-17T08:25:31.998Z,1.80
2018-01-17T08:26:31.957Z,2.08
2018-01-17T08:27:31.917Z,2.07
2018-01-17T08:28:31.874Z,1.94
2018-01-17T08:29:31.833Z,1.91
2018-01-17T08:30:31.792Z,1.87
2018-01-17T08:31:31.781Z,1.80
2018-01-17T08:32:31.715Z,1.85
2018-01-17T08:33:31.669Z,1.74
2018-01-17T08:34:31.627Z,1.68
2018-01-17T08:35:31.586Z,1.67
2018-01-17T08:36:31.547Z,1.67
2018-01-17T08:37:31.502Z,1.71
2018-01-17T08:38:31.466Z,1.62
2018-01-17T08:39:31.422Z,1.67
2018-01-17T08:40:31.382Z,1.66
2018-01-17T08:41:31.339Z,1.77
2018-01-17T08:42:31.295Z,1.70
2018-01-17T08:43:31.257Z,1.81
2018-01-17T08:44:31.245Z,1.85
2018-01-17T08:45:31.174Z,1.94
2018-01-17T08:46:31.321Z,2.06
2018-01-17T08:47:31.091Z,2.13
2018-01-17T08:48:31.050Z,2.11
2018-01-17T08:49:31.006Z,2.24
2018-01-17T08:50:30.969Z,2.26
2018-01-17T08:51:30.925Z,2.43
2018-01-17T08:52:30.885Z,2.54
2018-01-17T08:53:30.945Z,2.56
2018-01-17T08:54:30.804Z,2.49
2018-01-17T08:55:30.763Z,2.65
2018-01-17T08:56:30.721Z,2.80
2018-01-17T08:57:30.682Z,3.01
2018-01-17T08:58:30.643Z,3.00
2018-01-17T08:59:30.601Z,2.95
2018-01-17T09:00:30.564Z,2.80
2018-01-17T09:01:31.257Z,2.71
2018-01-17T09:02:30.487Z,2.56
2018-01-17T09:03:30.446Z,2.49
2018-01-17T09:04:30.407Z,2.47
2018-01-17T09:05:30.368Z,2.54
2018-01-17T09:06:30.328Z,2.49
2018-01-17T09:07:30.286Z,2.56
2018-01-17T09:08:30.248Z,2.46
2018-01-17T09:09:30.206Z,2.43
2018-01-17T09:10:30.166Z,2.42
2018-01-17T09:11:30.127Z,2.38
2018-01-17T09:12:30.090Z,2.35
2018-01-17T09:13:30.046Z,2.38
2018-01-17T09:14:30.005Z,2.26
2018-01-17T09:15:29.965Z,2.18
2018-01-17T09:16:29.923Z,2.24
2018-01-17T09:17:29.883Z,2.14
2018-01-17T09:18:29.843Z,2.06
2018-01-17T09:19:29.810Z,2.07
2018-01-17T09:20:29.759Z,2.10
2018-01-17T09:21:29.718Z,2.14
2018-01-17T09:22:29.678Z,2.24
2018-01-17T09:23:29.636Z,2.24
2018-01-17T09:24:29.616Z,2.26
2018-01-17T09:25:29.554Z,2.24
2018-01-17T09:26:29.519Z,2.29
2018-01-17T09:27:29.471Z,2.31
2018-01-17T09:28:29.431Z,2.39
2018-01-17T09:29:29.388Z,2.46
2018-01-17T09:30:29.348Z,2.42
2018-01-17T09:31:29.306Z,2.32
2018-01-17T09:32:29.264Z,2.28
2018-01-17T09:33:29.223Z,2.24
2018-01-17T09:34:29.183Z,2.25
2018-01-17T09:35:29.142Z,2.20
2018-01-17T09:36:29.101Z,2.18
2018-01-17T09:37:29.057Z,1.94
2018-01-17T09:38:29.017Z,1.87
2018-01-17T09:39:28.976Z,1.68
2018-01-17T09:40:28.940Z,1.73
2018-01-17T09:41:28.892Z,1.63
2018-01-17T09:42:28.852Z,1.67
2018-01-17T09:43:28.808Z,1.59
2018-01-17T09:44:28.767Z,1.60
2018-01-17T09:45:28.723Z,1.50
2018-01-17T09:46:28.683Z,1.49
2018-01-17T09:47:28.642Z,1.49
2018-01-17T09:48:28.601Z,1.44
2018-01-17T09:49:28.559Z,1.37
2018-01-17T09:50:28.519Z,1.42
2018-01-17T09:51:28.475Z,1.42
2018-01-17T09:52:28.437Z,1.44
2018-01-17T09:53:28.397Z,1.41
2018-01-17T09:54:28.352Z,1.44
2018-01-17T09:55:28.309Z,1.38
2018-01-17T09:56:28.268Z,1.52
2018-01-17T09:57:28.224Z,1.52
2018-01-17T09:58:28.183Z,1.52
2018-01-17T09:59:28.140Z,1.55
2018-01-17T10:00:28.100Z,1.49
2018-01-17T10:01:28.059Z,1.63
2018-01-17T10:02:28.017Z,1.58
2018-01-17T10:05:00.042Z,1.55
2018-01-17T10:05:59.961Z,1.60
2018-01-17T10:07:01.188Z,1.60
2018-01-17T10:07:59.881Z,1.58
2018-01-17T10:08:59.837Z,1.60
2018-01-17T10:10:04.869Z,1.68
2018-01-17T10:10:59.755Z,1.78
2018-01-17T10:12:00.596Z,1.87
2018-01-17T10:12:59.672Z,1.91
2018-01-17T10:14:00.533Z,1.89
2018-01-17T10:14:59.610Z,1.95
2018-01-17T10:15:59.602Z,2.02
2018-01-17T10:16:59.509Z,2.14
2018-01-17T10:17:59.464Z,2.06
2018-01-17T10:18:59.422Z,2.00
2018-01-17T10:19:59.382Z,2.04
2018-01-17T10:20:59.339Z,2.02
2018-01-17T10:21:59.297Z,2.06
2018-01-17T10:22:59.260Z,2.13
2018-01-17T10:23:59.214Z,2.20
2018-01-17T10:24:59.173Z,2.18
2018-01-17T10:25:59.149Z,2.15
2018-01-17T10:26:59.090Z,2.26
2018-01-17T10:27:59.049Z,2.20
2018-01-17T10:28:59.008Z,2.26
2018-01-17T10:29:58.964Z,2.22
2018-01-17T10:30:58.926Z,2.28
2018-01-17T10:31:58.882Z,2.38
2018-01-17T10:32:58.842Z,2.43
2018-01-17T10:33:58.811Z,2.44
2018-01-17T10:34:58.758Z,2.57
2018-01-17T10:35:58.716Z,2.50
2018-01-17T10:36:58.675Z,2.51
2018-01-17T10:37:58.635Z,2.46
2018-01-17T10:38:58.593Z,2.56
2018-01-17T10:39:58.551Z,2.47
2018-01-17T10:40:58.512Z,2.43
2018-01-17T10:41:58.469Z,2.44
2018-01-17T10:42:58.428Z,2.42
2018-01-17T10:43:58.387Z,2.46
2018-01-17T10:44:58.346Z,2.46
2018-01-17T10:45:58.303Z,2.44
2018-01-17T10:46:58.266Z,2.46
2018-01-17T10:47:58.223Z,2.46
2018-01-17T10:48:58.182Z,2.44
2018-01-17T10:49:58.142Z,2.43
2018-01-17T10:50:58.099Z,2.47
2018-01-17T10:51:58.059Z,2.38
2018-01-17T10:52:58.035Z,2.35
2018-01-17T10:53:57.975Z,2.31
2018-01-17T10:54:57.932Z,2.20
2018-01-17T10:55:57.891Z,2.24
2018-01-17T10:56:57.849Z,2.00
2018-01-17T10:57:57.807Z,2.07
2018-01-17T10:58:57.771Z,2.11
2018-01-17T10:59:57.725Z,2.14
2018-01-17T11:00:57.690Z,2.25
2018-01-17T11:01:57.642Z,2.25
2018-01-17T11:02:57.601Z,2.18
2018-01-17T11:03:57.557Z,2.31
2018-01-17T11:04:57.518Z,2.33
2018-01-17T11:05:57.479Z,2.32
2018-01-17T11:06:57.433Z,2.38
2018-01-17T11:07:57.451Z,2.31
2018-01-17T11:08:57.378Z,2.46
2018-01-17T11:09:57.312Z,2.50
2018-01-17T11:10:57.270Z,2.49
2018-01-17T11:11:57.259Z,2.85
2018-01-17T11:12:57.189Z,3.05
2018-01-17T11:13:57.145Z,2.98
2018-01-17T11:14:57.106Z,2.93
2018-01-17T11:15:57.062Z,2.83
2018-01-17T11:16:57.022Z,2.97
2018-01-17T11:17:57.029Z,2.98
2018-01-17T11:18:56.944Z,2.98
2018-01-17T11:19:56.916Z,2.98
2018-01-17T11:20:56.864Z,2.97
2018-01-17T11:21:56.817Z,3.11
2018-01-17T11:22:56.777Z,2.95
2018-01-17T11:23:56.744Z,3.03
2018-01-17T11:24:56.693Z,3.05
2018-01-17T11:25:56.655Z,3.13
2018-01-17T11:26:56.620Z,3.10
2018-01-17T11:27:56.571Z,3.25
2018-01-17T11:28:56.530Z,3.16
2018-01-17T11:29:56.489Z,3.29
2018-01-17T11:30:56.448Z,3.55
2018-01-17T11:31:56.410Z,3.70
2018-01-17T11:32:56.369Z,3.69
2018-01-17T11:33:56.326Z,3.51
2018-01-17T11:34:56.307Z,3.48
2018-01-17T11:35:56.248Z,3.47
2018-01-17T11:36:56.211Z,3.34
2018-01-17T11:37:56.167Z,3.36
2018-01-17T11:38:56.128Z,3.37
2018-01-17T11:39:56.090Z,3.34
2018-01-17T11:40:56.050Z,3.29
2018-01-17T11:41:56.012Z,3.32
2018-01-17T11:42:55.969Z,3.45
2018-01-17T11:43:55.929Z,3.47
2018-01-17T11:44:55.890Z,3.44
2018-01-17T11:45:55.851Z,3.45
2018-01-17T11:46:55.832Z,3.48
2018-01-17T11:47:55.771Z,3.28
2018-01-17T11:48:55.730Z,3.44
2018-01-17T11:49:55.691Z,3.34
2018-01-17T11:50:55.672Z,3.32
2018-01-17T11:51:55.611Z,3.29
2018-01-17T11:52:55.571Z,3.21
2018-01-17T11:53:55.547Z,3.08
2018-01-17T11:54:55.502Z,3.13
2018-01-17T11:55:55.494Z,3.05
2018-01-17T11:56:55.408Z,3.05
2018-01-17T11:57:55.367Z,2.90
2018-01-17T11:58:55.360Z,2.85
2018-01-17T11:59:55.285Z,2.80
2018-01-17T12:00:55.245Z,2.67
2018-01-17T12:01:55.216Z,2.61
2018-01-17T12:02:55.160Z,2.65
2018-01-17T12:03:55.123Z,2.67
2018-01-17T12:04:55.091Z,2.75
2018-01-17T12:05:55.042Z,2.82
2018-01-17T12:06:54.999Z,2.93
2018-01-17T12:07:54.957Z,2.95
2018-01-17T12:08:54.917Z,2.92
2018-01-17T12:09:54.877Z,2.92
2018-01-17T12:10:54.946Z,2.98
2018-01-17T12:11:54.795Z,2.93
2018-01-17T12:12:54.777Z,3.01
2018-01-17T12:13:54.709Z,3.04
2018-01-17T12:14:54.673Z,3.01
2018-01-17T12:15:54.629Z,2.98
2018-01-17T12:16:54.600Z,2.98
2018-01-17T12:17:54.546Z,3.05
2018-01-17T12:18:54.520Z,3.08
2018-01-17T12:19:54.465Z,3.08
2018-01-17T12:20:54.424Z,3.04
2018-01-17T12:21:54.385Z,3.08
2018-01-17T12:22:54.345Z,3.14
2018-01-17T12:23:54.312Z,3.04
2018-01-17T12:24:54.259Z,3.08
2018-01-17T12:25:54.215Z,3.10
2018-01-17T12:26:54.193Z,3.26
2018-01-17T12:27:54.147Z,3.80
2018-01-17T12:28:54.094Z,4.44
2018-01-17T12:29:54.055Z,5.08
2018-01-17T12:30:54.022Z,5.59
2018-01-17T12:31:53.982Z,5.73
2018-01-17T12:32:53.942Z,5.64
2018-01-17T12:33:53.930Z,5.65
2018-01-17T12:34:53.873Z,5.32
2018-01-17T12:35:53.835Z,5.35
2018-01-17T12:36:53.799Z,5.54
2018-01-17T12:37:53.778Z,5.62
2018-01-17T12:38:53.732Z,5.46
2018-01-17T12:39:53.700Z,5.33
2018-01-17T12:40:53.662Z,5.10
2018-01-17T12:41:53.624Z,5.35
2018-01-17T12:42:53.615Z,5.38
2018-01-17T12:43:53.555Z,5.44
2018-01-17T12:44:53.519Z,5.36
2018-01-17T12:45:53.485Z,5.28
2018-01-17T12:46:53.450Z,5.11
2018-01-17T12:47:53.427Z,4.93
2018-01-17T12:48:53.381Z,4.93
2018-01-17T12:49:53.344Z,4.80
2018-01-17T12:50:53.308Z,4.82
2018-01-17T12:51:53.271Z,4.80
2018-01-17T12:52:53.250Z,4.84
2018-01-17T12:53:53.198Z,4.87
2018-01-17T12:54:53.163Z,4.93
2018-01-17T12:55:53.123Z,4.80
2018-01-17T12:56:53.085Z,4.63
2018-01-17T12:57:53.049Z,4.63
2018-01-17T12:58:53.013Z,4.53
2018-01-17T12:59:52.972Z,4.58
2018-01-17T13:00:52.935Z,4.40
2018-01-17T13:01:52.900Z,4.20
2018-01-17T13:02:52.857Z,4.13
2018-01-17T13:03:52.817Z,4.20
2018-01-17T13:04:52.829Z,4.34
2018-01-17T13:05:52.760Z,4.50
2018-01-17T13:06:52.702Z,4.66
2018-01-17T13:07:52.661Z,4.66
2018-01-17T13:08:52.622Z,4.73
2018-01-17T13:09:52.586Z,4.73
2018-01-17T13:10:52.562Z,4.73
2018-01-17T13:11:52.505Z,4.86
2018-01-17T13:12:52.471Z,4.89
2018-01-17T13:13:52.430Z,4.99
2018-01-17T13:14:52.406Z,4.82
2018-01-17T13:15:52.368Z,4.82
2018-01-17T13:16:52.324Z,4.67
2018-01-17T13:17:52.271Z,4.62
2018-01-17T13:18:52.236Z,4.67
2018-01-17T13:19:52.199Z,4.60